createdAt,value
2019-04-22T00:00:08.825Z,955.02
2019-04-22T00:17:15.166Z,955.21
2019-04-22T00:32:04.812Z,955.29
2019-04-22T00:46:37.548Z,955.49
2019-04-22T01:02:12.927Z,955.59
2019-04-22T01:16:42.549Z,955.59
2019-04-22T01:30:59.310Z,955.7
2019-04-22T01:46:48.938Z,955.81
2019-04-22T02:02:09.058Z,955.89
2019-04-22T02:17:01.126Z,956.03
2019-04-22T02:33:38.871Z,956.14
2019-04-22T02:47:49.669Z,956.08
2019-04-22T03:02:18.706Z,956.06
2019-04-22T03:17:43.132Z,956.11
2019-04-22T03:32:38.914Z,956.06
2019-04-22T03:46:41.592Z,956.17
2019-04-22T04:32:26.652Z,956.14
2019-04-22T04:47:59.862Z,956.3
2019-04-22T05:02:52.039Z,956.36
2019-04-22T05:17:52.250Z,956.17
2019-04-22T05:32:30.528Z,955.87
2019-04-22T05:46:28.132Z,955.29
2019-04-22T06:02:52.780Z,954.78
2019-04-22T06:16:50.086Z,954.7
2019-04-22T06:31:32.008Z,954.42
2019-04-22T06:47:04.776Z,953.74
2019-04-22T07:01:48.483Z,953.23
2019-04-22T07:32:00.107Z,957.75
2019-04-22T07:47:04.370Z,952.68
2019-04-22T08:01:55.617Z,952.98
2019-04-22T08:17:22.536Z,955.26
2019-04-22T08:32:04.462Z,952.11
2019-04-22T08:46:16.455Z,951.86
2019-04-22T09:02:06.108Z,949.86
2019-04-22T09:17:03.609Z,955.47
2019-04-22T09:32:00.142Z,955.47
2019-04-22T09:46:59.490Z,950.29
2019-04-22T10:01:34.053Z,950.62
2019-04-22T10:17:17.138Z,949.96
2019-04-22T10:31:53.959Z,949.85
2019-04-22T10:45:06.231Z,949.72
2019-04-22T11:00:05.171Z,949.41
2019-04-22T11:15:05.783Z,949.36
2019-04-22T11:30:06.076Z,949.06
2019-04-22T11:45:05.883Z,948.95
2019-04-22T12:00:05.194Z,948.62
2019-04-22T12:15:06.622Z,948.26
2019-04-22T12:30:05.220Z,947.91
2019-04-22T12:45:04.524Z,947.41
2019-04-22T13:00:05.942Z,946.95
2019-04-22T13:15:09.714Z,946.42
2019-04-22T13:30:08.327Z,946.29
2019-04-22T13:45:05.092Z,945.96
2019-04-22T14:00:13.520Z,945.9
2019-04-22T14:15:04.531Z,945.6
2019-04-22T14:30:06.643Z,945.46
2019-04-22T15:00:06.319Z,945.22
2019-04-22T15:15:06.001Z,945.33
2019-04-22T15:30:07.723Z,945.24
2019-04-22T15:45:18.291Z,945.33
2019-04-22T16:01:05.832Z,945.14
2019-04-22T16:15:13.244Z,944.86
2019-04-22T16:30:05.706Z,944.75
2019-04-22T16:45:07.347Z,944.59
2019-04-22T17:00:04.938Z,944.53
2019-04-22T17:15:18.468Z,944.56
2019-04-22T17:30:06.700Z,944.59
2019-04-22T17:46:44.400Z,944.67
2019-04-22T18:01:28.868Z,944.83
2019-04-22T18:16:59.997Z,945.14
2019-04-22T18:31:00.967Z,945.33
2019-04-22T18:46:51.966Z,945.66
2019-04-22T19:00:14.102Z,946.15
2019-04-22T19:16:51.649Z,946.45
2019-04-22T19:31:28.364Z,946.73
2019-04-22T19:46:11.870Z,946.78
2019-04-22T20:00:54.430Z,946.89
2019-04-22T20:16:03.905Z,946.84
2019-04-22T20:31:44.021Z,946.7
2019-04-22T20:46:19.973Z,946.95
2019-04-22T21:01:13.218Z,946.86
2019-04-22T21:16:55.860Z,947.22
2019-04-22T21:31:51.013Z,947.19
2019-04-22T21:46:28.671Z,947.41
2019-04-22T22:01:56.556Z,947.6
2019-04-22T22:16:38.210Z,947.69
2019-04-22T22:31:57.633Z,947.8
2019-04-22T22:45:55.039Z,947.91
2019-04-22T23:01:11.849Z,947.99
2019-04-22T23:16:12.407Z,948.01
2019-04-22T23:30:43.431Z,948.1
2019-04-22T23:46:21.362Z,948.15
